Time;durP1;ratioP1;P1;durP2;ratioP2;P2;SDS_P1;SDS_P2;PMS_P1;PMS_P2;Temp;Humidity;BMP_temperature;BMP_pressure;BME280_temperature;BME280_humidity;BME280_pressure;Samples;Min_cycle;Max_cycle;Signal;HPM_P1;HPM_P2
2023/06/30 00:07:21;;;;;;;10.45;6.78;;;18.50;99.90;;;;;;4879276;29;20065;-79
2023/06/30 00:09:54;;;;;;;9.15;7.07;;;18.80;99.90;;;;;;5375674;23;20074;-77
2023/06/30 00:13:12;;;;;;;8.50;6.32;;;18.60;99.90;;;;;;4867435;29;20048;-78
2023/06/30 00:15:50;;;;;;;12.63;6.93;;;18.60;99.90;;;;;;4861044;29;20371;-78
2023/06/30 00:18:34;;;;;;;11.07;7.20;;;18.70;99.90;;;;;;4843942;29;20046;-79
2023/06/30 00:21:15;;;;;;;;;;;;;;;;;;;;;
2023/06/30 00:26:12;;;;;;;8.93;6.50;;;18.30;99.90;;;;;;4828968;29;20058;-79
2023/06/30 00:29:05;;;;;;;11.60;7.07;;;18.10;99.90;;;;;;4839651;29;20054;-79
2023/06/30 00:34:22;;;;;;;10.10;7.13;;;18.40;99.90;;;;;;5398329;23;20053;-78
2023/06/30 00:41:41;;;;;;;;;;;;;;;;;;;;;
2023/06/30 00:44:03;;;;;;;12.98;6.90;;;18.30;99.90;;;;;;4872420;29;20049;-77
2023/06/30 00:46:32;;;;;;;10.57;7.13;;;18.40;99.90;;;;;;4880325;29;20045;-76
2023/06/30 00:49:29;;;;;;;12.82;7.20;;;18.10;99.90;;;;;;4873679;29;20084;-77
2023/06/30 01:02:27;;;;;;;12.00;6.78;;;18.40;99.90;;;;;;4856722;29;20085;-80
2023/06/30 01:05:48;;;;;;;11.95;6.95;;;18.50;99.90;;;;;;4861240;29;20070;-79
2023/06/30 01:09:03;;;;;;;9.13;6.60;;;18.40;99.90;;;;;;4859862;29;20096;-80
2023/06/30 01:14:17;;;;;;;10.70;6.97;;;18.20;99.90;;;;;;4895336;29;20124;-79
2023/06/30 01:16:46;;;;;;;9.88;6.57;;;18.10;99.90;;;;;;4896455;29;20408;-78
2023/06/30 01:27:15;;;;;;;11.63;6.43;;;18.40;99.90;;;;;;4866978;29;20048;-80
2023/06/30 01:29:44;;;;;;;12.30;6.85;;;18.40;99.90;;;;;;4867196;29;20045;-78
2023/06/30 01:32:45;;;;;;;10.95;6.57;;;18.40;99.90;;;;;;4895253;29;20104;-78
2023/06/30 01:40:14;;;;;;;10.95;6.45;;;18.00;99.90;;;;;;4828632;29;20011;-80
2023/06/30 01:43:34;;;;;;;12.38;7.00;;;17.90;99.90;;;;;;4844109;29;20046;-79
2023/06/30 01:46:17;;;;;;;10.73;6.95;;;17.30;99.90;;;;;;4857934;29;20505;-79
2023/06/30 01:48:45;;;;;;;10.93;6.43;;;17.10;99.90;;;;;;4857826;29;20081;-81
2023/06/30 01:51:14;;;;;;;11.50;7.28;;;17.10;99.90;;;;;;4850429;29;20046;-79
2023/06/30 01:53:41;;;;;;;8.85;6.97;;;17.20;99.90;;;;;;4862027;29;20072;-77
2023/06/30 01:56:30;;;;;;;;;;;;;;;;;;;;;
2023/06/30 01:59:21;;;;;;;10.93;6.82;;;17.00;99.90;;;;;;4856178;29;20062;-76
2023/06/30 02:02:11;;;;;;;11.85;6.63;;;17.50;99.90;;;;;;5228284;23;20295;-77
2023/06/30 02:04:39;;;;;;;9.20;6.70;;;17.30;99.90;;;;;;4862177;29;20053;-77
2023/06/30 02:07:06;;;;;;;9.90;6.43;;;17.10;99.90;;;;;;4875418;29;20152;-78
2023/06/30 02:12:39;;;;;;;8.15;6.05;;;17.60;99.90;;;;;;4843651;29;20125;-80
2023/06/30 02:15:08;;;;;;;8.77;6.20;;;17.40;99.90;;;;;;4861653;29;20053;-77
2023/06/30 02:17:48;;;;;;;8.10;6.63;;;17.10;99.90;;;;;;4866698;29;20045;-77
2023/06/30 02:30:26;;;;;;;9.50;6.43;;;17.30;99.90;;;;;;4854365;29;20105;-77
2023/06/30 02:32:54;;;;;;;10.98;6.70;;;17.10;99.90;;;;;;4863643;29;20712;-80
2023/06/30 02:35:22;;;;;;;11.00;6.53;;;17.30;99.90;;;;;;4866471;29;20061;-77
2023/06/30 02:37:50;;;;;;;9.10;6.05;;;17.30;99.90;;;;;;4864919;29;20057;-76
2023/06/30 02:40:17;;;;;;;11.50;6.78;;;17.50;99.90;;;;;;4864488;29;20045;-78
2023/06/30 02:45:56;;;;;;;12.18;6.80;;;17.50;99.90;;;;;;3123459;27;20057;-77
2023/06/30 02:48:24;;;;;;;12.10;7.32;;;17.60;99.90;;;;;;4834298;29;20050;-77
2023/06/30 02:58:40;;;;;;;9.50;6.72;;;17.60;99.90;;;;;;4860970;29;20042;-79
2023/06/30 03:01:28;;;;;;;12.60;7.50;;;17.30;99.90;;;;;;4870496;29;20057;-77
2023/06/30 03:05:34;;;;;;;14.13;7.70;;;17.30;99.90;;;;;;4855018;29;20132;-78
2023/06/30 03:08:31;;;;;;;11.02;7.40;;;17.20;99.90;;;;;;4860576;29;20093;-78
2023/06/30 03:10:59;;;;;;;12.00;8.27;;;16.80;99.90;;;;;;4869711;29;20037;-77
2023/06/30 03:14:04;;;;;;;10.43;7.32;;;17.00;99.90;;;;;;4868057;29;20105;-77
2023/06/30 03:16:51;;;;;;;20.92;7.57;;;17.20;99.90;;;;;;4866931;29;20572;-76
2023/06/30 03:24:03;;;;;;;13.73;8.57;;;16.40;99.90;;;;;;4868728;29;20124;-76
2023/06/30 03:27:25;;;;;;;10.52;7.82;;;16.40;99.90;;;;;;4857132;29;20494;-76
2023/06/30 03:29:52;;;;;;;14.05;7.75;;;16.90;99.90;;;;;;4868603;29;20042;-77
2023/06/30 03:32:20;;;;;;;11.35;8.05;;;17.00;99.90;;;;;;4869699;29;20037;-78
2023/06/30 03:42:09;;;;;;;10.10;6.72;;;17.10;99.90;;;;;;4864406;29;20109;-76
2023/06/30 03:44:43;;;;;;;8.70;6.15;;;17.10;99.90;;;;;;4847146;29;20049;-77
2023/06/30 03:50:26;;;;;;;9.52;6.72;;;17.20;99.90;;;;;;5148837;23;20050;-78
2023/06/30 03:52:53;;;;;;;9.15;6.63;;;17.40;99.90;;;;;;4856150;29;20490;-81
2023/06/30 03:55:21;;;;;;;49.17;31.65;;;17.50;99.90;;;;;;4871915;29;20088;-78
2023/06/30 03:57:50;;;;;;;71.10;43.08;;;17.50;99.90;;;;;;4872911;29;20558;-80
2023/06/30 04:00:33;;;;;;;32.10;22.77;;;17.60;99.90;;;;;;4869049;29;20109;-78
2023/06/30 04:03:37;;;;;;;37.50;24.83;;;17.60;99.90;;;;;;4872027;29;20074;-78
2023/06/30 04:06:08;;;;;;;27.33;19.00;;;17.70;99.90;;;;;;4872433;29;20119;-78
2023/06/30 04:16:59;;;;;;;11.70;8.23;;;17.70;99.90;;;;;;4997364;23;20037;-77
2023/06/30 04:20:14;;;;;;;11.45;7.07;;;17.50;99.90;;;;;;4861097;29;20071;-77
2023/06/30 04:26:08;;;;;;;8.98;6.70;;;17.00;99.90;;;;;;4923020;23;20037;-78
2023/06/30 04:28:38;;;;;;;9.18;6.93;;;17.20;99.90;;;;;;4866042;29;20045;-79
2023/06/30 04:34:44;;;;;;;9.40;6.93;;;17.10;99.90;;;;;;4862475;29;20056;-78
2023/06/30 04:40:04;;;;;;;7.55;6.60;;;17.60;99.90;;;;;;4889531;29;20264;-78
2023/06/30 04:42:34;;;;;;;10.02;7.10;;;17.70;99.90;;;;;;4887920;29;20083;-79
2023/06/30 04:45:06;;;;;;;8.32;6.38;;;17.60;99.90;;;;;;4885299;29;20148;-77
2023/06/30 04:50:24;;;;;;;9.32;6.53;;;17.10;99.90;;;;;;5254353;23;20049;-77
2023/06/30 04:52:52;;;;;;;8.00;6.32;;;17.20;99.90;;;;;;4864694;29;20057;-79
2023/06/30 04:55:20;;;;;;;8.02;6.32;;;17.40;99.90;;;;;;4890411;29;20076;-78
2023/06/30 04:57:49;;;;;;;7.72;6.20;;;17.40;99.90;;;;;;4870904;29;20128;-77
2023/06/30 05:02:21;;;;;;;;;;;;;;;;;;;;;
2023/06/30 05:05:15;;;;;;;8.20;6.65;;;17.40;99.90;;;;;;4865058;29;20386;-77
2023/06/30 05:08:04;;;;;;;10.48;7.05;;;17.60;99.90;;;;;;4873032;29;20049;-77
2023/06/30 05:14:48;;;;;;;7.55;6.20;;;17.90;99.90;;;;;;4844186;29;20045;-78
2023/06/30 05:26:18;;;;;;;8.38;7.38;;;17.90;99.90;;;;;;4845723;29;20040;-76
2023/06/30 05:28:46;;;;;;;8.45;6.43;;;18.20;99.90;;;;;;5193363;23;20497;-77
2023/06/30 05:32:13;;;;;;;9.00;5.93;;;18.10;99.90;;;;;;4854053;29;20045;-76
2023/06/30 05:37:42;;;;;;;8.00;6.55;;;18.30;99.90;;;;;;4900093;29;20439;-78
2023/06/30 05:40:18;;;;;;;10.38;7.25;;;18.30;99.90;;;;;;4901406;29;20032;-77
2023/06/30 05:43:33;;;;;;;9.65;6.72;;;18.40;99.90;;;;;;4889198;29;20060;-78
2023/06/30 05:46:15;;;;;;;7.15;6.35;;;18.50;99.90;;;;;;4882635;29;20112;-77
2023/06/30 05:51:38;;;;;;;8.63;6.32;;;18.80;99.90;;;;;;4975801;23;20045;-76
2023/06/30 05:54:18;;;;;;;8.43;7.03;;;18.90;99.90;;;;;;4864931;29;20082;-76
2023/06/30 06:01:43;;;;;;;8.55;6.97;;;19.00;99.90;;;;;;4748633;30;20091;-78
2023/06/30 06:11:36;;;;;;;8.02;6.15;;;19.40;99.90;;;;;;4814405;29;20535;-79
2023/06/30 06:18:26;;;;;;;8.80;6.40;;;19.10;99.90;;;;;;5452458;23;20057;-79
2023/06/30 06:24:59;;;;;;;8.70;6.22;;;19.20;99.90;;;;;;4869784;29;20140;-78
2023/06/30 06:32:11;;;;;;;9.02;6.72;;;19.90;99.90;;;;;;4873561;29;20056;-78
2023/06/30 06:39:11;;;;;;;8.80;6.47;;;19.80;99.90;;;;;;4873775;29;20053;-79
2023/06/30 06:41:51;;;;;;;8.55;6.60;;;19.90;99.90;;;;;;4882569;29;20405;-79
2023/06/30 06:44:18;;;;;;;8.75;6.68;;;19.70;99.90;;;;;;5063338;23;20060;-78
2023/06/30 06:46:46;;;;;;;9.95;7.07;;;19.90;99.90;;;;;;4908690;29;20041;-79
2023/06/30 06:49:15;;;;;;;10.50;7.50;;;19.80;99.90;;;;;;4903737;29;20047;-79
2023/06/30 06:52:21;;;;;;;7.90;6.57;;;19.60;99.90;;;;;;4902366;29;20060;-78
2023/06/30 06:55:05;;;;;;;8.68;6.93;;;19.80;99.90;;;;;;4903556;29;20041;-80
2023/06/30 06:57:59;;;;;;;8.35;6.90;;;20.00;99.90;;;;;;4907837;29;20096;-78
2023/06/30 07:08:18;;;;;;;28.65;19.95;;;20.10;99.90;;;;;;4957386;23;20049;-78
2023/06/30 07:14:21;;;;;;;40.05;26.67;;;20.20;99.90;;;;;;4887805;23;20518;-83
2023/06/30 07:17:37;;;;;;;32.08;18.80;;;20.40;99.90;;;;;;4869944;23;20057;-78
2023/06/30 07:37:20;;;;;;;11.50;8.30;;;20.60;99.90;;;;;;4852490;29;20106;-79
2023/06/30 07:51:52;;;;;;;14.45;8.32;;;21.30;99.90;;;;;;5609711;23;20135;-77
2023/06/30 07:55:50;;;;;;;13.23;9.27;;;21.30;99.90;;;;;;4888707;29;20103;-78
2023/06/30 08:00:04;;;;;;;9.52;7.13;;;21.50;99.90;;;;;;4875392;29;20089;-81
2023/06/30 08:08:53;;;;;;;11.05;7.32;;;21.50;99.90;;;;;;4883708;29;20036;-78
2023/06/30 08:14:18;;;;;;;11.48;6.18;;;21.90;99.40;;;;;;5211844;23;20028;-79
2023/06/30 08:17:05;;;;;;;71.65;50.55;;;21.80;98.40;;;;;;4837113;29;20038;-79
2023/06/30 08:19:52;;;;;;;72.82;49.17;;;21.80;98.20;;;;;;4850986;29;20049;-81
2023/06/30 08:23:01;;;;;;;30.50;24.92;;;21.80;98.50;;;;;;4856687;29;20046;-79
2023/06/30 08:25:49;;;;;;;146.32;101.07;;;21.90;98.00;;;;;;4853268;29;20497;-77
2023/06/30 08:28:17;;;;;;;35.38;29.23;;;21.90;98.20;;;;;;4849971;29;20038;-80
2023/06/30 08:30:47;;;;;;;16.58;12.18;;;22.10;98.20;;;;;;4848697;29;20046;-80
2023/06/30 08:47:06;;;;;;;14.57;8.20;;;22.50;96.20;;;;;;4858347;23;20073;-79
2023/06/30 08:58:07;;;;;;;19.88;14.90;;;22.50;95.10;;;;;;4886733;29;20060;-80
2023/06/30 09:00:33;;;;;;;50.65;37.22;;;22.60;95.30;;;;;;4881357;29;20053;-80
2023/06/30 09:03:34;;;;;;;9.80;8.38;;;22.70;95.30;;;;;;4886267;29;20042;-78
2023/06/30 09:07:57;;;;;;;;;;;;;;;;;;;;;
2023/06/30 09:11:15;;;;;;;8.90;6.28;;;22.60;94.30;;;;;;4879445;29;20056;-77
2023/06/30 09:13:50;;;;;;;9.23;6.18;;;22.90;93.00;;;;;;4867498;29;20068;-78
2023/06/30 09:17:50;;;;;;;10.13;5.53;;;22.90;92.80;;;;;;4873577;29;20073;-77
2023/06/30 09:20:58;;;;;;;8.63;6.40;;;23.10;93.10;;;;;;5012364;23;20286;-79
2023/06/30 09:23:43;;;;;;;37.85;26.65;;;23.40;92.00;;;;;;4876672;29;20048;-78
2023/06/30 09:34:14;;;;;;;8.57;6.47;;;23.60;90.20;;;;;;4883238;29;20045;-77
2023/06/30 09:36:48;;;;;;;14.15;9.40;;;23.80;87.90;;;;;;4872931;29;20395;-79
2023/06/30 09:39:51;;;;;;;6.53;4.90;;;23.80;90.00;;;;;;4874673;29;20105;-79
2023/06/30 09:43:15;;;;;;;5.78;4.30;;;23.90;88.70;;;;;;5621208;23;20049;-77
2023/06/30 09:52:38;;;;;;;7.32;4.53;;;24.20;85.60;;;;;;4860590;29;20117;-79
2023/06/30 09:55:11;;;;;;;5.30;3.65;;;24.40;85.70;;;;;;4885204;29;20045;-78
2023/06/30 10:03:29;;;;;;;5.70;3.30;;;24.30;81.50;;;;;;5264154;23;20052;-80
2023/06/30 10:06:06;;;;;;;4.60;3.20;;;24.40;81.60;;;;;;4881692;29;20076;-78
2023/06/30 10:39:16;;;;;;;5.25;3.45;;;25.50;80.30;;;;;;5410967;23;20112;-76
2023/06/30 10:42:31;;;;;;;7.63;3.55;;;25.40;78.70;;;;;;4870456;29;20069;-77
2023/06/30 10:51:09;;;;;;;9.65;4.30;;;25.80;78.80;;;;;;4885579;23;20053;-79
2023/06/30 10:59:37;;;;;;;;;;;;;;;;;;;;;
2023/06/30 11:03:42;;;;;;;4.70;3.20;;;26.40;81.30;;;;;;4780277;29;20061;-76
2023/06/30 11:06:17;;;;;;;7.55;3.72;;;26.60;79.50;;;;;;4811153;29;20105;-79
2023/06/30 11:09:09;;;;;;;6.90;4.10;;;26.60;79.80;;;;;;4861472;29;20049;-78
2023/06/30 11:22:26;;;;;;;7.47;4.40;;;26.90;81.70;;;;;;5495729;23;20045;-79
2023/06/30 11:32:35;;;;;;;8.90;4.20;;;27.00;81.30;;;;;;5283975;23;20049;-78
2023/06/30 11:45:34;;;;;;;6.75;3.88;;;27.20;80.00;;;;;;4856764;29;20057;-80
2023/06/30 11:48:05;;;;;;;9.95;4.50;;;27.20;79.70;;;;;;4902687;23;20045;-75
2023/06/30 11:50:45;;;;;;;6.22;4.05;;;27.40;80.30;;;;;;4900901;29;20049;-75
2023/06/30 11:53:27;;;;;;;31.60;20.65;;;27.50;79.10;;;;;;4886186;29;20048;-75
2023/06/30 11:56:29;;;;;;;27.58;21.23;;;27.50;80.00;;;;;;4876348;29;20059;-79
2023/06/30 11:59:34;;;;;;;27.08;19.35;;;27.90;79.80;;;;;;4885482;29;20049;-76
2023/06/30 12:02:25;;;;;;;;;;;28.30;79.60;;;;;;4895763;29;20048;-75
2023/06/30 12:05:45;;;;;;;8.23;5.15;;;28.10;79.10;;;;;;4895661;29;19923;-75
2023/06/30 12:08:38;;;;;;;;;;;28.10;78.40;;;;;;4888965;29;20040;-78
2023/06/30 12:11:07;;;;;;;7.72;4.57;;;28.10;79.60;;;;;;4886970;29;19951;-75
2023/06/30 12:13:47;;;;;;;15.15;7.30;;;28.40;78.40;;;;;;4902601;29;20052;-78
2023/06/30 12:16:25;;;;;;;6.88;4.18;;;28.10;80.40;;;;;;4880336;23;20057;-76
2023/06/30 12:19:15;;;;;;;10.45;5.15;;;28.30;78.50;;;;;;4880077;29;20136;-75
2023/06/30 12:21:54;;;;;;;6.63;4.10;;;28.30;78.60;;;;;;4867260;29;20041;-75
2023/06/30 12:24:22;;;;;;;5.55;3.60;;;28.60;77.70;;;;;;4892323;29;20093;-76
2023/06/30 12:27:44;;;;;;;4.95;3.53;;;29.00;77.60;;;;;;4864842;29;20045;-77
2023/06/30 12:30:22;;;;;;;5.60;3.80;;;29.00;77.10;;;;;;4879553;29;20557;-77
2023/06/30 12:33:10;;;;;;;8.73;4.63;;;28.90;76.80;;;;;;4853691;29;20387;-76
2023/06/30 12:35:56;;;;;;;6.00;3.47;;;28.70;77.30;;;;;;4868311;29;20148;-78
2023/06/30 12:38:39;;;;;;;6.43;3.83;;;28.60;76.10;;;;;;4879371;29;20068;-79
2023/06/30 12:41:17;;;;;;;5.75;3.78;;;28.70;76.10;;;;;;4870041;29;20045;-78
2023/06/30 12:43:50;;;;;;;6.40;3.92;;;29.10;76.80;;;;;;4861363;29;20157;-77
2023/06/30 12:46:34;;;;;;;7.50;3.90;;;29.00;76.90;;;;;;4871032;23;20072;-78
2023/06/30 12:49:11;;;;;;;6.40;3.67;;;29.00;75.40;;;;;;4847181;29;20050;-77
2023/06/30 12:51:39;;;;;;;6.10;3.40;;;28.90;76.60;;;;;;4841901;29;20077;-77
2023/06/30 12:55:07;;;;;;;6.68;3.60;;;28.80;76.40;;;;;;4848935;27;5720695;-78
2023/06/30 12:57:39;;;;;;;5.68;3.42;;;29.10;74.50;;;;;;5079534;28;20091;-77
2023/06/30 13:00:09;;;;;;;7.10;3.70;;;29.30;74.70;;;;;;5033014;28;20110;-78
2023/06/30 13:02:37;;;;;;;;;;;28.80;74.20;;;;;;5013745;28;20053;-76
2023/06/30 13:05:25;;;;;;;6.25;3.83;;;29.10;74.60;;;;;;5002058;23;19925;-78
2023/06/30 13:07:53;;;;;;;4.53;2.95;;;29.00;74.50;;;;;;4978849;28;20069;-76
2023/06/30 13:10:21;;;;;;;6.38;3.78;;;29.20;74.40;;;;;;4988858;28;20390;-77
2023/06/30 13:21:17;;;;;;;11.32;5.18;;;29.80;73.80;;;;;;4966627;28;20065;-77
2023/06/30 13:23:44;;;;;;;9.40;4.45;;;29.50;73.90;;;;;;4961009;28;20055;-76
2023/06/30 13:26:12;;;;;;;5.80;3.58;;;29.50;72.90;;;;;;4990405;28;20085;-76
2023/06/30 13:28:40;;;;;;;8.88;4.65;;;29.70;71.90;;;;;;4990869;28;20045;-76
2023/06/30 13:32:08;;;;;;;7.28;3.63;;;29.80;71.40;;;;;;4952877;28;20065;-75
2023/06/30 13:34:38;;;;;;;12.48;3.45;;;30.10;71.20;;;;;;4989816;28;20043;-77
2023/06/30 13:37:39;;;;;;;8.85;4.28;;;30.20;71.30;;;;;;4960992;28;20047;-75
2023/06/30 13:40:07;;;;;;;8.48;4.18;;;30.40;70.90;;;;;;5003870;28;20148;-77
2023/06/30 13:42:49;;;;;;;5.63;3.83;;;30.70;71.40;;;;;;5008180;28;20107;-77
2023/06/30 13:45:21;;;;;;;6.93;3.72;;;30.70;70.50;;;;;;4975373;28;20046;-76
2023/06/30 13:48:35;;;;;;;6.45;3.80;;;30.90;70.70;;;;;;4960852;28;20115;-76
2023/06/30 13:51:03;;;;;;;9.00;3.90;;;30.90;70.20;;;;;;4996278;28;20449;-75
2023/06/30 13:53:30;;;;;;;6.75;3.85;;;31.00;70.80;;;;;;5010682;28;20125;-76
2023/06/30 14:06:52;;;;;;;5.38;3.25;;;31.10;70.00;;;;;;6193452;22;2514609;-78
2023/06/30 14:09:20;;;;;;;5.88;4.10;;;31.80;68.00;;;;;;6236345;22;20409;-75
2023/06/30 14:11:54;;;;;;;4.97;3.33;;;32.00;68.60;;;;;;6235455;22;20015;-74
2023/06/30 14:14:25;;;;;;;7.38;3.65;;;31.70;68.00;;;;;;6213322;22;20012;-75
2023/06/30 14:16:52;;;;;;;6.57;3.88;;;31.70;67.70;;;;;;6258302;22;20390;-76
2023/06/30 14:19:41;;;;;;;;;;;;;;;;;;;;;
2023/06/30 14:22:41;;;;;;;;;;;31.90;67.60;;;;;;6197950;23;20088;-76
2023/06/30 14:25:23;;;;;;;5.78;3.30;;;32.20;66.80;;;;;;6227491;23;19916;-75
2023/06/30 14:28:01;;;;;;;5.57;3.70;;;32.30;66.60;;;;;;6226068;23;20016;-75
2023/06/30 14:31:37;;;;;;;5.13;3.33;;;32.40;66.50;;;;;;6204468;23;20454;-77
2023/06/30 14:34:42;;;;;;;5.95;3.67;;;32.70;66.20;;;;;;6262330;22;20027;-76
2023/06/30 14:38:08;;;;;;;5.35;3.78;;;32.90;66.30;;;;;;6284816;22;20030;-76
2023/06/30 14:41:01;;;;;;;7.20;3.33;;;34.00;64.90;;;;;;6310457;22;20030;-77
2023/06/30 14:43:55;;;;;;;5.45;3.42;;;35.60;61.30;;;;;;6291570;22;20375;-76
2023/06/30 14:47:48;;;;;;;5.18;3.33;;;37.30;59.20;;;;;;6320198;22;20079;-78
2023/06/30 14:50:44;;;;;;;5.45;3.30;;;38.80;55.70;;;;;;6276151;22;20018;-77
2023/06/30 14:53:29;;;;;;;6.65;3.78;;;38.90;54.50;;;;;;6321099;22;20090;-75
2023/06/30 14:56:17;;;;;;;5.20;3.80;;;40.00;54.00;;;;;;6294138;22;20072;-75
2023/06/30 14:59:21;;;;;;;6.68;3.50;;;39.90;52.90;;;;;;6313913;22;20019;-77
2023/06/30 15:01:49;;;;;;;6.22;3.75;;;40.00;52.20;;;;;;6290124;22;20076;-78
2023/06/30 15:04:33;;;;;;;4.70;3.10;;;40.10;52.10;;;;;;6318969;22;20590;-75
2023/06/30 15:07:39;;;;;;;8.38;3.05;;;40.10;52.40;;;;;;6265982;22;20081;-76
2023/06/30 15:10:14;;;;;;;4.90;3.25;;;38.50;52.20;;;;;;6284474;22;20109;-75
2023/06/30 15:12:42;;;;;;;7.28;3.28;;;37.90;52.00;;;;;;6307935;22;20334;-78
2023/06/30 15:15:10;;;;;;;4.80;3.00;;;38.80;52.00;;;;;;6308828;22;20089;-75
2023/06/30 15:17:37;;;;;;;6.35;3.50;;;39.50;51.80;;;;;;6284791;22;20022;-77
2023/06/30 15:20:06;;;;;;;4.82;2.80;;;38.90;51.30;;;;;;6283842;22;20072;-74
2023/06/30 15:22:34;;;;;;;5.03;3.00;;;39.50;51.20;;;;;;6309493;22;20453;-77
2023/06/30 15:25:03;;;;;;;4.30;2.83;;;40.70;51.10;;;;;;6281606;22;20023;-75
2023/06/30 15:27:33;;;;;;;4.63;2.90;;;40.40;51.40;;;;;;6281268;22;20016;-75
2023/06/30 15:30:05;;;;;;;6.05;3.22;;;40.40;50.10;;;;;;6283489;22;20062;-75
2023/06/30 15:32:33;;;;;;;5.40;3.05;;;40.80;50.40;;;;;;6310183;22;20019;-76
2023/06/30 15:35:07;;;;;;;4.95;3.22;;;40.30;50.50;;;;;;6283038;22;20229;-78
2023/06/30 15:37:35;;;;;;;6.13;2.92;;;39.70;50.10;;;;;;6283085;22;20140;-76
2023/06/30 15:40:02;;;;;;;5.07;3.05;;;39.60;51.40;;;;;;6280255;22;20073;-76
2023/06/30 15:42:31;;;;;;;8.02;3.30;;;40.00;51.50;;;;;;6309044;22;20015;-75
2023/06/30 15:47:39;;;;;;;4.53;3.03;;;39.50;51.30;;;;;;6095654;23;20018;-75
2023/06/30 15:50:10;;;;;;;5.43;3.20;;;39.20;49.80;;;;;;6074043;23;20082;-75
2023/06/30 15:52:37;;;;;;;4.57;3.00;;;39.20;50.40;;;;;;6099310;23;20019;-77
2023/06/30 15:55:12;;;;;;;6.07;3.08;;;38.90;51.40;;;;;;6075386;23;20441;-76
2023/06/30 15:57:40;;;;;;;5.55;3.30;;;38.50;50.90;;;;;;6100083;23;20022;-77
2023/06/30 16:00:09;;;;;;;4.63;3.10;;;38.10;50.50;;;;;;6051667;23;20028;-76
2023/06/30 16:02:38;;;;;;;6.07;3.42;;;39.30;49.80;;;;;;6099652;23;20044;-75
2023/06/30 16:05:09;;;;;;;4.78;3.10;;;38.90;50.50;;;;;;6099204;23;20022;-75
2023/06/30 16:07:37;;;;;;;5.63;3.08;;;38.40;50.00;;;;;;6098806;23;20348;-74
2023/06/30 16:10:07;;;;;;;5.00;3.20;;;38.90;50.60;;;;;;6050724;23;20030;-75
2023/06/30 16:12:37;;;;;;;4.60;3.00;;;37.60;51.90;;;;;;6050759;23;20022;-77
2023/06/30 16:15:07;;;;;;;4.32;2.88;;;37.40;52.30;;;;;;6049274;23;20417;-75
2023/06/30 16:17:36;;;;;;;6.28;3.28;;;37.30;51.60;;;;;;6098956;23;20041;-76
2023/06/30 16:20:05;;;;;;;7.25;3.10;;;36.80;52.60;;;;;;6050112;23;20090;-73
2023/06/30 16:22:34;;;;;;;4.68;2.65;;;35.50;53.20;;;;;;6075683;23;20027;-77
2023/06/30 16:25:01;;;;;;;5.03;3.30;;;36.90;52.40;;;;;;6050243;23;20022;-76
2023/06/30 16:27:30;;;;;;;5.07;3.10;;;37.50;50.90;;;;;;6100765;23;20046;-77
2023/06/30 16:30:27;;;;;;;5.15;3.40;;;37.70;51.80;;;;;;6099871;23;20075;-76
2023/06/30 16:33:00;;;;;;;5.25;2.88;;;37.10;51.50;;;;;;6047363;23;20019;-75
2023/06/30 16:35:28;;;;;;;;;;;36.90;52.40;;;;;;6049710;23;20019;-74
2023/06/30 16:37:57;;;;;;;4.85;2.88;;;36.70;52.70;;;;;;6101812;23;19917;-73
2023/06/30 16:40:24;;;;;;;5.13;2.88;;;36.80;52.40;;;;;;6127549;23;20026;-73
2023/06/30 16:42:53;;;;;;;5.53;3.42;;;36.50;51.90;;;;;;6076912;23;20345;-77
2023/06/30 16:45:21;;;;;;;4.72;3.00;;;36.70;52.10;;;;;;6075586;23;20053;-74
2023/06/30 16:47:48;;;;;;;5.60;3.13;;;36.50;52.60;;;;;;6127914;23;20025;-75
2023/06/30 16:50:17;;;;;;;5.95;3.90;;;35.80;53.00;;;;;;6130608;23;20467;-75
2023/06/30 16:52:44;;;;;;;4.82;2.97;;;35.70;53.50;;;;;;6126842;23;20380;-76
2023/06/30 16:55:14;;;;;;;4.93;3.20;;;34.80;54.50;;;;;;6077082;23;20025;-77
2023/06/30 16:57:43;;;;;;;5.00;3.15;;;34.00;55.30;;;;;;6077353;23;20021;-75
2023/06/30 17:00:15;;;;;;;7.10;3.40;;;32.90;56.50;;;;;;6077617;23;20033;-76
2023/06/30 17:02:43;;;;;;;5.32;3.63;;;31.70;58.50;;;;;;6103700;23;20073;-74
2023/06/30 17:05:12;;;;;;;6.03;3.80;;;30.80;59.90;;;;;;6125537;23;20109;-76
2023/06/30 17:07:49;;;;;;;7.32;3.45;;;30.20;61.10;;;;;;6075901;23;20019;-75
2023/06/30 17:11:22;;;;;;;6.22;3.50;;;30.10;60.90;;;;;;6075452;23;20058;-75
2023/06/30 17:14:04;;;;;;;8.05;3.78;;;30.00;62.30;;;;;;6085117;23;20022;-75
2023/06/30 17:16:31;;;;;;;6.72;3.72;;;29.70;62.90;;;;;;6100212;23;20022;-76
2023/06/30 17:19:08;;;;;;;6.07;3.95;;;29.30;63.20;;;;;;6129559;23;20017;-76
2023/06/30 17:21:52;;;;;;;6.30;3.53;;;29.30;62.90;;;;;;6082196;23;20022;-76
2023/06/30 17:24:34;;;;;;;6.85;4.60;;;29.20;62.80;;;;;;6104969;23;20049;-75
2023/06/30 17:27:01;;;;;;;7.13;4.07;;;29.00;64.00;;;;;;6127391;23;20028;-75
2023/06/30 17:29:31;;;;;;;7.55;4.40;;;28.90;63.20;;;;;;6128452;23;20022;-75
2023/06/30 17:31:58;;;;;;;6.70;4.18;;;28.80;64.30;;;;;;6076635;23;20076;-75
2023/06/30 17:34:25;;;;;;;6.93;3.95;;;28.70;63.70;;;;;;6075171;23;20018;-77
2023/06/30 17:37:06;;;;;;;7.10;4.03;;;28.70;64.00;;;;;;6135178;23;20072;-80
2023/06/30 17:40:38;;;;;;;6.35;4.00;;;28.60;64.40;;;;;;6097504;23;20014;-82
2023/06/30 17:43:48;;;;;;;8.75;4.30;;;28.50;64.00;;;;;;6135123;23;20073;-79
2023/06/30 17:47:10;;;;;;;5.90;4.00;;;28.30;65.70;;;;;;6114274;23;20022;-83
2023/06/30 17:50:29;;;;;;;7.25;4.32;;;28.00;67.30;;;;;;6193107;23;20501;-79
2023/06/30 17:52:58;;;;;;;8.18;4.40;;;27.60;68.60;;;;;;6227839;23;20028;-77
2023/06/30 17:55:26;;;;;;;7.90;4.53;;;27.40;69.70;;;;;;6206016;23;20020;-75
2023/06/30 17:58:12;;;;;;;8.20;4.80;;;27.30;69.60;;;;;;6211217;23;20082;-77
2023/06/30 18:01:03;;;;;;;9.80;5.25;;;27.20;70.50;;;;;;6202505;23;20050;-76
2023/06/30 18:04:09;;;;;;;7.60;4.70;;;27.20;70.70;;;;;;6198828;23;20107;-76
2023/06/30 18:07:00;;;;;;;6.90;4.70;;;27.20;70.70;;;;;;6250558;23;20101;-78
2023/06/30 18:09:29;;;;;;;6.60;4.55;;;27.20;70.60;;;;;;6199763;23;20020;-75
2023/06/30 18:12:00;;;;;;;7.47;5.15;;;27.10;71.60;;;;;;6204327;23;20027;-76
2023/06/30 18:14:29;;;;;;;9.95;5.50;;;27.00;72.60;;;;;;6224547;23;20020;-74
2023/06/30 18:16:57;;;;;;;8.80;5.53;;;27.00;72.30;;;;;;6198631;23;20019;-74
2023/06/30 18:19:35;;;;;;;9.27;4.70;;;27.00;72.20;;;;;;6224906;23;20020;-77
2023/06/30 18:22:05;;;;;;;9.98;5.00;;;27.00;71.30;;;;;;6196257;23;20023;-79
2023/06/30 18:24:37;;;;;;;9.73;4.80;;;26.90;71.60;;;;;;6199460;23;20110;-75
2023/06/30 18:27:05;;;;;;;7.47;4.60;;;26.90;72.40;;;;;;6219942;23;20024;-75
2023/06/30 18:29:42;;;;;;;8.50;4.97;;;26.90;73.00;;;;;;6195508;23;20082;-78
2023/06/30 18:32:26;;;;;;;7.97;4.95;;;26.90;73.50;;;;;;6200742;23;20027;-76
2023/06/30 18:36:09;;;;;;;47.38;33.85;;;26.80;73.60;;;;;;6230427;23;20035;-77
2023/06/30 18:40:19;;;;;;;28.13;23.50;;;26.80;73.90;;;;;;6234215;23;20074;-78
2023/06/30 18:43:06;;;;;;;53.90;42.50;;;26.80;74.30;;;;;;6156146;23;20337;-77
2023/06/30 18:45:55;;;;;;;34.20;26.65;;;26.80;74.90;;;;;;6193440;23;20504;-75
2023/06/30 18:49:19;;;;;;;59.15;44.15;;;26.70;76.20;;;;;;6235190;23;20146;-76
2023/06/30 18:52:31;;;;;;;20.75;16.05;;;26.60;77.00;;;;;;6222199;23;20020;-76
2023/06/30 18:59:33;;;;;;;10.80;7.00;;;26.40;78.60;;;;;;6164781;23;20010;-77
2023/06/30 19:02:19;;;;;;;11.40;7.93;;;26.30;78.70;;;;;;6226307;23;20023;-76
2023/06/30 19:04:48;;;;;;;;;;;26.20;79.50;;;;;;6228761;23;20330;-80
2023/06/30 19:07:17;;;;;;;12.20;7.15;;;26.10;80.80;;;;;;6252234;23;19915;-82
2023/06/30 19:10:38;;;;;;;13.52;7.53;;;25.90;81.40;;;;;;6231566;23;20091;-77
2023/06/30 19:13:58;;;;;;;11.82;7.18;;;25.70;82.50;;;;;;6227834;23;20030;-77
2023/06/30 19:17:04;;;;;;;14.60;8.20;;;25.70;83.50;;;;;;6252373;23;20016;-77
2023/06/30 19:19:55;;;;;;;18.58;9.40;;;25.70;83.90;;;;;;6253440;23;20082;-81
2023/06/30 19:27:19;;;;;;;17.75;7.97;;;25.70;84.60;;;;;;6224487;23;20027;-75
2023/06/30 19:29:48;;;;;;;13.38;8.85;;;25.60;85.90;;;;;;6227958;23;20023;-78
2023/06/30 19:32:18;;;;;;;13.15;8.82;;;25.60;86.30;;;;;;6228488;23;20020;-75
2023/06/30 19:35:31;;;;;;;16.00;9.20;;;25.60;87.80;;;;;;6226826;23;20457;-79
2023/06/30 19:40:40;;;;;;;13.20;7.78;;;25.20;89.00;;;;;;6225881;22;20024;-81
2023/06/30 19:43:33;;;;;;;13.57;8.23;;;25.20;90.00;;;;;;6203646;23;20086;-79
2023/06/30 19:49:15;;;;;;;13.15;8.10;;;25.40;90.00;;;;;;6252569;22;20023;-79
2023/06/30 19:52:01;;;;;;;13.07;8.45;;;25.30;90.40;;;;;;6290388;22;20011;-80
2023/06/30 19:58:40;;;;;;;14.35;8.43;;;24.50;93.40;;;;;;6288860;22;20008;-79
2023/06/30 20:02:17;;;;;;;16.15;8.38;;;24.70;93.70;;;;;;6268665;22;20016;-78
2023/06/30 20:05:04;;;;;;;12.98;8.60;;;24.70;94.30;;;;;;6290872;22;20006;-79
2023/06/30 20:07:57;;;;;;;12.23;7.82;;;24.80;94.60;;;;;;6271489;22;20038;-78
2023/06/30 20:18:13;;;;;;;15.57;8.20;;;24.70;95.80;;;;;;6262312;22;20438;-80
2023/06/30 20:42:40;;;;;;;13.43;6.70;;;24.30;97.70;;;;;;6077780;23;20054;-81